createdAt,value
2019-03-04T00:00:44.362Z,9.10
2019-03-04T00:03:16.559Z,9.00
2019-03-04T00:05:46.960Z,9.00
2019-03-04T00:08:17.320Z,9.10
2019-03-04T00:10:47.663Z,8.90
2019-03-04T00:13:18.035Z,9.00
2019-03-04T00:15:48.331Z,9.00
2019-03-04T00:18:18.689Z,9.10
2019-03-04T00:20:49.011Z,9.00
2019-03-04T00:23:19.396Z,9.00
2019-03-04T00:25:51.753Z,9.00
2019-03-04T00:28:21.683Z,9.10
2019-03-04T00:30:51.981Z,9.10
2019-03-04T00:33:22.341Z,9.10
2019-03-04T00:35:52.676Z,9.10
2019-03-04T00:38:23.052Z,9.10
2019-03-04T00:40:53.509Z,9.10
2019-03-04T00:43:23.989Z,9.00
2019-03-04T00:45:54.739Z,9.00
2019-03-04T00:48:25.237Z,8.90
2019-03-04T00:50:55.656Z,9.00
2019-03-04T00:53:26.028Z,8.90
2019-03-04T00:55:56.369Z,8.90
2019-03-04T00:58:26.751Z,8.90
2019-03-04T01:00:57.083Z,8.90
2019-03-04T01:03:27.425Z,8.80
2019-03-04T01:05:57.735Z,8.80
2019-03-04T01:08:28.105Z,8.80
2019-03-04T01:10:58.426Z,8.80
2019-03-04T01:13:28.833Z,8.80
2019-03-04T01:15:59.192Z,8.90
2019-03-04T01:18:29.590Z,8.90
2019-03-04T01:20:59.934Z,8.90
2019-03-04T01:23:30.333Z,8.80
2019-03-04T01:26:00.683Z,8.80
2019-03-04T01:28:31.076Z,8.70
2019-03-04T01:31:01.355Z,8.80
2019-03-04T01:33:31.712Z,8.80
2019-03-04T01:36:02.032Z,8.70
2019-03-04T01:38:32.481Z,8.70
2019-03-04T01:41:02.788Z,8.70
2019-03-04T01:43:33.173Z,8.70
2019-03-04T01:46:03.507Z,8.70
2019-03-04T01:48:35.108Z,8.70
2019-03-04T01:51:05.461Z,8.80
2019-03-04T01:53:35.884Z,8.80
2019-03-04T01:56:06.216Z,8.70
2019-03-04T01:58:36.640Z,8.70
2019-03-04T02:01:06.957Z,8.70
2019-03-04T02:03:37.361Z,8.70
2019-03-04T02:06:07.708Z,8.70
2019-03-04T02:08:38.150Z,8.70
2019-03-04T02:11:08.570Z,8.70
2019-03-04T02:13:38.980Z,8.70
2019-03-04T02:16:09.313Z,8.70
2019-03-04T02:18:39.894Z,8.70
2019-03-04T02:21:10.291Z,8.70
2019-03-04T02:23:41.062Z,8.70
2019-03-04T02:26:21.563Z,8.80
2019-03-04T02:28:51.921Z,8.80
2019-03-04T02:31:22.229Z,8.70
2019-03-04T02:33:52.587Z,8.70
2019-03-04T02:36:22.931Z,8.70
2019-03-04T02:38:53.348Z,8.70
2019-03-04T02:41:24.747Z,8.70
2019-03-04T02:43:55.172Z,8.80
2019-03-04T02:46:25.491Z,8.70
2019-03-04T02:48:55.857Z,8.80
2019-03-04T02:51:26.199Z,8.70
2019-03-04T02:53:56.542Z,8.70
2019-03-04T02:56:26.860Z,8.70
2019-03-04T02:58:57.259Z,8.70
2019-03-04T03:01:27.567Z,8.60
2019-03-04T03:03:57.962Z,8.70
2019-03-04T03:06:28.354Z,8.70
2019-03-04T03:08:58.692Z,8.60
2019-03-04T03:11:28.994Z,8.60
2019-03-04T03:13:59.356Z,8.60
2019-03-04T03:16:29.668Z,8.60
2019-03-04T03:19:00.093Z,8.60
2019-03-04T03:21:30.442Z,8.60
2019-03-04T03:24:00.820Z,8.60
2019-03-04T03:26:32.328Z,8.50
2019-03-04T03:29:02.744Z,8.50
2019-03-04T03:31:33.236Z,8.50
2019-03-04T03:34:03.661Z,8.50
2019-03-04T03:36:33.949Z,8.50
2019-03-04T03:39:05.411Z,8.50
2019-03-04T03:41:37.391Z,8.50
2019-03-04T03:44:08.733Z,8.40
2019-03-04T03:46:39.033Z,8.50
2019-03-04T03:49:10.492Z,8.40
2019-03-04T03:51:40.830Z,8.40
2019-03-04T03:54:11.257Z,8.40
2019-03-04T03:56:41.649Z,8.40
2019-03-04T03:59:12.022Z,8.40
2019-03-04T04:01:42.336Z,8.40
2019-03-04T04:04:12.677Z,8.40
2019-03-04T04:06:43.025Z,8.40
2019-03-04T04:09:13.345Z,8.50
2019-03-04T04:11:43.689Z,8.40
2019-03-04T04:14:14.109Z,8.50
2019-03-04T04:16:44.440Z,8.40
2019-03-04T04:19:14.800Z,8.40
2019-03-04T04:21:45.114Z,8.40
2019-03-04T04:24:15.450Z,8.30
2019-03-04T04:26:46.815Z,8.30
2019-03-04T04:29:17.214Z,8.30
2019-03-04T04:31:47.503Z,8.30
2019-03-04T04:34:17.926Z,8.30
2019-03-04T04:36:48.326Z,8.30
2019-03-04T04:39:18.768Z,8.30
2019-03-04T04:41:49.089Z,8.30
2019-03-04T04:44:19.452Z,8.30
2019-03-04T04:46:54.486Z,8.30
2019-03-04T04:49:26.634Z,8.30
2019-03-04T04:51:57.015Z,8.40
2019-03-04T04:54:27.420Z,8.40
2019-03-04T04:56:57.779Z,8.40
2019-03-04T04:59:28.172Z,8.40
2019-03-04T05:01:58.539Z,8.50
2019-03-04T05:04:28.941Z,8.60
2019-03-04T05:06:59.264Z,8.60
2019-03-04T05:09:29.646Z,8.60
2019-03-04T05:11:59.976Z,8.60
2019-03-04T05:14:30.399Z,8.70
2019-03-04T05:17:00.700Z,8.70
2019-03-04T05:19:31.073Z,8.70
2019-03-04T05:22:01.466Z,8.70
2019-03-04T05:24:31.920Z,8.70
2019-03-04T05:27:02.324Z,8.80
2019-03-04T05:29:32.773Z,8.90
2019-03-04T05:32:03.127Z,8.80
2019-03-04T05:34:34.693Z,8.90
2019-03-04T05:37:06.117Z,8.80
2019-03-04T05:39:36.492Z,8.70
2019-03-04T05:42:06.886Z,8.80
2019-03-04T05:44:37.349Z,8.80
2019-03-04T05:47:07.814Z,8.80
2019-03-04T05:49:38.472Z,8.90
2019-03-04T05:52:08.870Z,8.90
2019-03-04T05:54:39.258Z,8.90
2019-03-04T05:57:09.580Z,8.90
2019-03-04T05:59:39.984Z,8.90
2019-03-04T06:02:11.530Z,8.90
2019-03-04T06:04:43.987Z,9.00
2019-03-04T06:07:33.340Z,9.10
2019-03-04T06:10:07.588Z,9.20
2019-03-04T06:12:38.006Z,9.30
2019-03-04T06:15:11.472Z,9.30
2019-03-04T06:17:41.768Z,9.30
2019-03-04T06:20:13.398Z,9.20
2019-03-04T06:22:43.766Z,9.30
2019-03-04T06:25:16.718Z,9.20
2019-03-04T06:27:48.167Z,9.20
2019-03-04T06:30:20.792Z,9.30
2019-03-04T06:32:51.200Z,9.30
2019-03-04T06:35:21.553Z,9.20
2019-03-04T06:37:51.861Z,9.20
2019-03-04T06:40:23.341Z,9.30
2019-03-04T06:42:53.648Z,9.30
2019-03-04T06:45:24.045Z,9.30
2019-03-04T06:47:54.398Z,9.40
2019-03-04T06:50:47.505Z,9.40
2019-03-04T06:53:51.200Z,9.40
2019-03-04T06:56:34.847Z,9.50
2019-03-04T06:59:13.198Z,9.50
2019-03-04T07:01:47.666Z,9.40
2019-03-04T07:04:38.392Z,9.50
2019-03-04T07:07:08.762Z,9.50
2019-03-04T07:09:39.101Z,9.60
2019-03-04T07:12:09.564Z,9.70
2019-03-04T07:14:40.606Z,9.70
2019-03-04T07:17:10.943Z,9.70
2019-03-04T07:19:41.912Z,9.70
2019-03-04T07:22:12.307Z,9.80
2019-03-04T07:24:42.682Z,9.90
2019-03-04T07:27:13.113Z,10.00
2019-03-04T07:29:43.419Z,10.00
2019-03-04T07:32:13.790Z,10.00
2019-03-04T07:34:44.158Z,9.90
2019-03-04T07:37:14.580Z,9.90
2019-03-04T07:39:44.914Z,9.90
2019-03-04T07:42:15.328Z,9.90
2019-03-04T07:44:45.662Z,9.90
2019-03-04T07:47:16.175Z,10.00
2019-03-04T07:49:50.111Z,10.00
2019-03-04T07:52:20.558Z,10.00
2019-03-04T07:54:50.902Z,10.00
2019-03-04T07:57:21.252Z,10.00
2019-03-04T07:59:51.582Z,10.00
2019-03-04T08:02:21.986Z,10.00
2019-03-04T08:04:52.332Z,10.00
2019-03-04T08:07:43.642Z,10.10
2019-03-04T08:10:39.218Z,10.10
2019-03-04T08:13:17.212Z,10.00
2019-03-04T08:15:50.259Z,10.00
2019-03-04T08:18:20.687Z,10.00
2019-03-04T08:20:51.041Z,10.10
2019-03-04T08:23:21.393Z,10.10
2019-03-04T08:25:51.764Z,10.30
2019-03-04T08:28:22.157Z,10.30
2019-03-04T08:30:52.501Z,10.30
2019-03-04T08:33:22.862Z,10.20
2019-03-04T08:35:53.252Z,10.20
2019-03-04T08:38:23.670Z,10.20
2019-03-04T08:40:53.968Z,10.10
2019-03-04T08:43:24.358Z,10.00
2019-03-04T08:45:54.769Z,10.10
2019-03-04T08:48:26.051Z,10.10
2019-03-04T08:50:56.455Z,10.10
2019-03-04T08:53:26.905Z,10.10
2019-03-04T08:56:02.282Z,10.10
2019-03-04T08:58:34.302Z,10.20
2019-03-04T09:01:04.950Z,10.30
2019-03-04T09:03:35.373Z,10.20
2019-03-04T09:06:05.772Z,10.20
2019-03-04T09:08:36.286Z,10.20
2019-03-04T09:11:09.445Z,10.30
2019-03-04T09:13:39.942Z,10.30
2019-03-04T09:16:10.288Z,10.40
2019-03-04T09:18:40.648Z,10.30
2019-03-04T09:21:11.020Z,10.40
2019-03-04T09:23:41.381Z,10.50
2019-03-04T09:26:12.209Z,10.50
2019-03-04T09:28:44.911Z,10.50
2019-03-04T09:31:15.312Z,10.50
2019-03-04T09:33:45.805Z,10.40
2019-03-04T09:36:16.212Z,10.40
2019-03-04T09:38:49.506Z,10.50
2019-03-04T09:41:19.922Z,10.50
2019-03-04T09:43:50.531Z,10.50
2019-03-04T09:46:21.025Z,10.60
2019-03-04T09:48:51.621Z,10.50
2019-03-04T09:51:24.688Z,10.50
2019-03-04T09:53:54.146Z,10.40
2019-03-04T09:56:24.569Z,10.40
2019-03-04T09:58:59.018Z,10.50
2019-03-04T10:01:43.673Z,10.70
2019-03-04T10:04:53.814Z,11.10
2019-03-04T10:07:56.034Z,11.40
2019-03-04T10:10:56.280Z,11.70
2019-03-04T10:14:17.750Z,11.70
2019-03-04T10:17:24.921Z,11.60
2019-03-04T10:20:31.129Z,11.80
2019-03-04T10:23:23.267Z,11.80
2019-03-04T10:26:28.022Z,11.70
2019-03-04T10:29:18.241Z,11.60
2019-03-04T10:32:23.660Z,11.50
2019-03-04T10:35:30.024Z,11.50
2019-03-04T10:38:48.859Z,11.40
2019-03-04T10:41:36.543Z,11.40
2019-03-04T10:44:37.831Z,11.50
2019-03-04T10:47:06.702Z,11.50
2019-03-04T10:49:37.867Z,11.40
2019-03-04T10:52:08.291Z,11.50
2019-03-04T10:54:41.036Z,11.60
2019-03-04T10:57:11.847Z,11.50
2019-03-04T10:59:42.270Z,11.60
2019-03-04T11:02:12.635Z,11.70
2019-03-04T11:04:43.404Z,11.80
2019-03-04T11:07:13.834Z,11.60
2019-03-04T11:09:44.247Z,11.70
2019-03-04T11:12:14.712Z,11.80
2019-03-04T11:14:45.230Z,11.80
2019-03-04T11:17:16.750Z,11.90
2019-03-04T11:19:47.266Z,11.90
2019-03-04T11:22:17.889Z,11.90
2019-03-04T11:24:50.965Z,11.90
2019-03-04T11:27:21.408Z,12.10
2019-03-04T11:29:51.833Z,12.50
2019-03-04T11:32:22.560Z,12.70
2019-03-04T11:34:52.890Z,12.60
2019-03-04T11:37:23.320Z,12.80
2019-03-04T11:40:06.495Z,13.00
2019-03-04T11:42:36.975Z,13.50
2019-03-04T11:45:10.462Z,13.80
2019-03-04T11:47:40.939Z,13.70
2019-03-04T11:50:12.992Z,13.70
2019-03-04T11:52:43.574Z,13.90
2019-03-04T11:55:14.167Z,13.70
2019-03-04T11:57:44.537Z,13.90
2019-03-04T12:00:20.616Z,13.70
2019-03-04T12:02:51.094Z,13.60
2019-03-04T12:05:21.385Z,13.40
2019-03-04T12:07:51.914Z,13.50
2019-03-04T12:10:22.256Z,13.40
2019-03-04T12:12:53.712Z,13.40
2019-03-04T12:15:27.053Z,13.50
2019-03-04T12:17:57.535Z,13.50
2019-03-04T12:20:27.849Z,13.50
2019-03-04T12:22:58.252Z,13.40
2019-03-04T12:25:30.192Z,13.50
2019-03-04T12:28:00.554Z,13.80
2019-03-04T12:30:30.902Z,13.80
2019-03-04T12:33:01.267Z,13.80
2019-03-04T12:35:32.736Z,13.80
2019-03-04T12:38:03.129Z,14.00
2019-03-04T12:40:33.483Z,14.00
2019-03-04T12:43:03.822Z,13.90
2019-03-04T12:45:34.847Z,13.50
2019-03-04T12:48:05.405Z,13.30
2019-03-04T12:50:35.838Z,13.20
2019-03-04T12:53:06.662Z,13.20
2019-03-04T12:55:37.002Z,13.30
2019-03-04T12:58:07.355Z,13.30
2019-03-04T13:00:37.916Z,13.20
2019-03-04T13:03:09.976Z,13.20
2019-03-04T13:05:40.302Z,13.00
2019-03-04T13:08:10.642Z,13.40
2019-03-04T13:10:41.029Z,13.70
2019-03-04T13:13:11.444Z,13.60
2019-03-04T13:15:41.758Z,13.40
2019-03-04T13:18:12.254Z,13.30
2019-03-04T13:20:43.414Z,13.10
2019-03-04T13:23:13.797Z,12.90
2019-03-04T13:25:44.238Z,12.80
2019-03-04T13:28:14.935Z,12.70
2019-03-04T13:30:45.430Z,12.60
2019-03-04T13:33:16.037Z,12.50
2019-03-04T13:35:46.761Z,12.50
2019-03-04T13:38:17.291Z,12.30
2019-03-04T13:40:47.685Z,12.30
2019-03-04T13:43:18.025Z,12.20
2019-03-04T13:45:48.331Z,12.20
2019-03-04T13:48:18.851Z,12.20
2019-03-04T13:50:49.205Z,12.10
2019-03-04T13:53:19.682Z,11.90
2019-03-04T13:55:50.140Z,11.70
2019-03-04T13:58:20.610Z,11.60
2019-03-04T14:00:51.042Z,11.50
2019-03-04T14:03:21.470Z,11.40
2019-03-04T14:05:51.849Z,11.40
2019-03-04T14:08:22.248Z,11.40
2019-03-04T14:10:52.597Z,11.40
2019-03-04T14:13:23.058Z,11.20
2019-03-04T14:15:53.430Z,11.20
2019-03-04T14:18:23.812Z,11.20
2019-03-04T14:20:54.149Z,11.20
2019-03-04T14:23:24.521Z,11.20
2019-03-04T14:25:54.904Z,11.20
2019-03-04T14:28:25.714Z,11.10
2019-03-04T14:30:56.036Z,11.10
2019-03-04T14:33:26.418Z,11.10
2019-03-04T14:35:56.803Z,11.00
2019-03-04T14:38:27.209Z,10.90
2019-03-04T14:40:58.678Z,10.80
2019-03-04T14:43:29.172Z,10.90
2019-03-04T14:45:59.521Z,10.90
2019-03-04T14:48:29.952Z,10.80
2019-03-04T14:51:00.322Z,10.90
2019-03-04T14:53:30.738Z,10.80
2019-03-04T14:56:01.521Z,11.00
2019-03-04T14:58:33.078Z,10.90
2019-03-04T15:01:03.516Z,10.80
2019-03-04T15:03:33.931Z,10.90
2019-03-04T15:09:50.485Z,10.80
2019-03-04T15:12:20.958Z,10.90
2019-03-04T15:14:51.341Z,10.80
2019-03-04T15:17:22.768Z,10.80
2019-03-04T15:19:53.224Z,10.80
2019-03-04T15:22:23.564Z,10.80
2019-03-04T15:24:54.016Z,10.60
2019-03-04T15:27:24.346Z,10.70
2019-03-04T15:29:54.702Z,10.80
2019-03-04T15:32:25.659Z,10.70
2019-03-04T15:35:04.395Z,10.60
2019-03-04T15:39:22.534Z,10.60
2019-03-04T15:41:46.611Z,10.50
2019-03-04T15:44:17.006Z,10.50
2019-03-04T15:46:47.346Z,10.60
2019-03-04T15:49:17.719Z,10.50
2019-03-04T15:51:48.034Z,10.60
2019-03-04T15:54:18.425Z,10.50
2019-03-04T15:56:48.769Z,10.40
2019-03-04T15:59:19.109Z,10.30
2019-03-04T16:01:49.409Z,10.30
2019-03-04T16:04:19.773Z,10.30
2019-03-04T16:06:50.225Z,10.20
2019-03-04T16:09:21.574Z,10.20
2019-03-04T16:11:51.893Z,10.20
2019-03-04T16:14:22.275Z,10.30
2019-03-04T16:16:52.605Z,10.30
2019-03-04T16:19:23.732Z,10.30
2019-03-04T16:21:54.160Z,10.20
2019-03-04T16:24:24.522Z,10.00
2019-03-04T16:26:54.902Z,10.10
2019-03-04T16:29:36.950Z,10.10
2019-03-04T16:32:00.342Z,10.20
2019-03-04T16:34:30.683Z,10.30
2019-03-04T16:37:06.209Z,10.20
2019-03-04T16:39:36.597Z,10.20
2019-03-04T16:42:08.422Z,10.10
2019-03-04T16:44:40.054Z,10.10
2019-03-04T16:47:11.615Z,10.00
2019-03-04T16:49:41.952Z,9.90
2019-03-04T16:52:13.461Z,9.80
2019-03-04T16:54:44.733Z,10.10
2019-03-04T16:57:15.116Z,10.10
2019-03-04T16:59:45.453Z,10.00
2019-03-04T17:02:15.905Z,9.70
2019-03-04T17:04:46.253Z,9.40
2019-03-04T17:07:16.578Z,9.20
2019-03-04T17:09:46.865Z,9.00
2019-03-04T17:12:17.335Z,8.90
2019-03-04T17:14:48.742Z,8.90
2019-03-04T17:17:19.258Z,8.90
2019-03-04T17:19:49.624Z,8.90
2019-03-04T17:22:19.996Z,8.80
2019-03-04T17:24:50.347Z,8.80
2019-03-04T17:27:20.753Z,8.80
2019-03-04T17:29:51.062Z,8.70
2019-03-04T17:32:21.432Z,8.70
2019-03-04T17:34:51.856Z,8.80
2019-03-04T17:37:23.397Z,8.70
2019-03-04T17:39:53.777Z,8.80
2019-03-04T17:42:24.221Z,8.80
2019-03-04T17:44:54.559Z,8.70
2019-03-04T17:47:24.986Z,8.70
2019-03-04T17:49:55.378Z,8.70
2019-03-04T17:52:25.687Z,8.70
2019-03-04T17:54:56.173Z,8.70
2019-03-04T17:57:26.539Z,8.70
2019-03-04T17:59:56.977Z,8.60
2019-03-04T18:02:27.312Z,8.70
2019-03-04T18:04:57.723Z,8.60
2019-03-04T18:07:28.059Z,8.60
2019-03-04T18:09:58.452Z,8.70
2019-03-04T18:12:28.820Z,8.70
2019-03-04T18:14:59.167Z,8.30
2019-03-04T18:17:29.617Z,7.80
2019-03-04T18:19:59.956Z,7.50
2019-03-04T18:22:30.324Z,7.40
2019-03-04T18:25:00.816Z,7.20
2019-03-04T18:27:40.183Z,7.00
2019-03-04T18:30:50.304Z,6.90
2019-03-04T18:33:48.867Z,6.70
2019-03-04T18:37:02.149Z,6.60
2019-03-04T18:40:04.511Z,6.50
2019-03-04T18:43:02.161Z,6.50
2019-03-04T18:46:28.735Z,6.40
2019-03-04T18:49:02.413Z,6.30
2019-03-04T18:51:34.795Z,6.30
2019-03-04T18:54:10.731Z,6.30
2019-03-04T18:56:41.127Z,6.30
2019-03-04T18:59:11.547Z,6.40
2019-03-04T19:01:41.987Z,6.30
2019-03-04T19:04:12.328Z,6.30
2019-03-04T19:06:42.775Z,6.40
2019-03-04T19:09:13.580Z,6.40
2019-03-04T19:11:44.029Z,6.40
2019-03-04T19:14:14.355Z,6.30
2019-03-04T19:16:44.776Z,6.30
2019-03-04T19:19:15.113Z,6.30
2019-03-04T19:21:45.570Z,6.20
2019-03-04T19:24:15.997Z,6.20
2019-03-04T19:26:46.400Z,6.20
2019-03-04T19:29:16.737Z,6.20
2019-03-04T19:31:47.149Z,6.20
2019-03-04T19:34:17.470Z,6.20
2019-03-04T19:36:47.860Z,6.20
2019-03-04T19:39:18.157Z,6.10
2019-03-04T19:41:48.540Z,6.10
2019-03-04T19:44:19.963Z,6.10
2019-03-04T19:46:50.445Z,6.00
2019-03-04T19:49:20.816Z,6.00
2019-03-04T19:51:51.246Z,5.90
2019-03-04T19:54:21.582Z,5.90
2019-03-04T19:56:51.980Z,5.90
2019-03-04T19:59:22.303Z,5.90
2019-03-04T20:01:52.736Z,5.80
2019-03-04T20:04:23.155Z,5.80
2019-03-04T20:06:53.528Z,5.70
2019-03-04T20:09:24.688Z,5.70
2019-03-04T20:11:55.158Z,5.70
2019-03-04T20:14:25.474Z,5.70
2019-03-04T20:16:56.091Z,5.60
2019-03-04T20:19:26.596Z,5.70
2019-03-04T20:21:57.058Z,5.70
2019-03-04T20:24:27.392Z,5.60
2019-03-04T20:26:57.765Z,5.60
2019-03-04T20:29:28.314Z,5.60
2019-03-04T20:31:58.707Z,5.60
2019-03-04T20:34:30.144Z,5.60
2019-03-04T20:37:01.048Z,5.60
2019-03-04T20:39:31.463Z,5.50
2019-03-04T20:42:01.973Z,5.50
2019-03-04T20:44:32.372Z,5.50
2019-03-04T20:47:02.937Z,5.40
2019-03-04T20:49:33.404Z,5.40
2019-03-04T20:52:03.783Z,5.40
2019-03-04T20:54:34.226Z,5.40
2019-03-04T20:57:04.691Z,5.40
2019-03-04T20:59:35.116Z,5.40
2019-03-04T21:02:06.238Z,5.30
2019-03-04T21:04:36.711Z,5.30
2019-03-04T21:07:07.679Z,5.30
2019-03-04T21:09:38.751Z,5.30
2019-03-04T21:12:09.195Z,5.30
2019-03-04T21:14:39.632Z,5.20
2019-03-04T21:17:09.976Z,5.20
2019-03-04T21:19:40.428Z,5.20
2019-03-04T21:22:10.837Z,5.10
2019-03-04T21:24:41.182Z,5.20
2019-03-04T21:27:11.661Z,5.10
2019-03-04T21:30:22.085Z,5.10
2019-03-04T21:33:18.848Z,5.10
2019-03-04T21:36:25.508Z,5.00
2019-03-04T21:38:57.892Z,5.00
2019-03-04T21:41:50.226Z,5.00
2019-03-04T21:45:03.056Z,5.00
2019-03-04T21:47:37.261Z,5.00
2019-03-04T21:50:09.568Z,5.00
2019-03-04T21:53:06.493Z,5.00
2019-03-04T21:55:41.954Z,5.00
2019-03-04T21:58:12.537Z,4.90
2019-03-04T22:00:46.199Z,4.90
2019-03-04T22:03:27.026Z,4.90
2019-03-04T22:05:57.980Z,4.90
2019-03-04T22:08:28.397Z,4.90
2019-03-04T22:10:59.800Z,4.90
2019-03-04T22:13:30.192Z,4.80
2019-03-04T22:16:00.743Z,4.90
2019-03-04T22:18:31.146Z,4.90
2019-03-04T22:21:01.715Z,4.80
2019-03-04T22:23:32.220Z,4.80
2019-03-04T22:26:02.620Z,4.80
2019-03-04T22:28:33.426Z,4.80
2019-03-04T22:31:03.724Z,4.80
2019-03-04T22:33:34.155Z,4.80
2019-03-04T22:36:04.543Z,4.80
2019-03-04T22:38:34.978Z,4.80
2019-03-04T22:41:05.371Z,4.80
2019-03-04T22:43:35.740Z,4.80
2019-03-04T22:46:06.036Z,4.80
2019-03-04T22:48:37.468Z,4.80
2019-03-04T22:51:07.874Z,4.80
2019-03-04T22:53:38.350Z,4.80
2019-03-04T22:56:08.738Z,4.80
2019-03-04T22:58:39.105Z,4.70
2019-03-04T23:01:41.762Z,4.80
2019-03-04T23:04:33.015Z,4.80
2019-03-04T23:07:14.728Z,4.80
2019-03-04T23:10:13.407Z,4.70
2019-03-04T23:12:54.303Z,4.80
2019-03-04T23:15:24.939Z,4.80
2019-03-04T23:17:56.338Z,4.80
2019-03-04T23:20:26.698Z,4.80
2019-03-04T23:22:57.038Z,4.80
2019-03-04T23:25:27.393Z,4.70
2019-03-04T23:27:57.781Z,4.70
2019-03-04T23:30:28.173Z,4.80
2019-03-04T23:32:58.496Z,4.80
2019-03-04T23:35:28.859Z,4.80
2019-03-04T23:37:59.185Z,4.70
2019-03-04T23:40:29.676Z,4.80
2019-03-04T23:43:00.073Z,4.80
2019-03-04T23:45:30.413Z,4.80
2019-03-04T23:48:00.771Z,4.80
2019-03-04T23:50:31.145Z,4.80
2019-03-04T23:53:01.453Z,4.80
2019-03-04T23:55:31.819Z,4.70
2019-03-04T23:58:02.121Z,4.70
